sensor_id;sensor_type;location;lat;lon;timestamp;P1;durP1;ratioP1;P2;durP2;ratioP2
4971;SDS011;2501;51.214;6.768;2023-03-13T00:02:16;17.88;;;3.70;;
4971;SDS011;2501;51.214;6.768;2023-03-13T00:04:44;27.42;;;5.53;;
4971;SDS011;2501;51.214;6.768;2023-03-13T00:07:13;18.83;;;4.32;;
4971;SDS011;2501;51.214;6.768;2023-03-13T00:09:41;26.42;;;5.32;;
4971;SDS011;2501;51.214;6.768;2023-03-13T00:12:12;20.50;;;4.50;;
4971;SDS011;2501;51.214;6.768;2023-03-13T00:14:40;23.05;;;5.10;;
4971;SDS011;2501;51.214;6.768;2023-03-13T00:17:09;27.35;;;5.47;;
4971;SDS011;2501;51.214;6.768;2023-03-13T00:19:37;26.47;;;4.93;;
4971;SDS011;2501;51.214;6.768;2023-03-13T00:22:06;27.38;;;5.63;;
4971;SDS011;2501;51.214;6.768;2023-03-13T00:24:34;28.27;;;5.57;;
4971;SDS011;2501;51.214;6.768;2023-03-13T00:27:03;25.63;;;5.90;;
4971;SDS011;2501;51.214;6.768;2023-03-13T00:29:34;21.30;;;5.40;;
4971;SDS011;2501;51.214;6.768;2023-03-13T00:32:03;25.33;;;5.88;;
4971;SDS011;2501;51.214;6.768;2023-03-13T00:34:32;24.40;;;5.22;;
4971;SDS011;2501;51.214;6.768;2023-03-13T00:37:00;29.92;;;5.07;;
4971;SDS011;2501;51.214;6.768;2023-03-13T00:39:28;25.38;;;5.65;;
4971;SDS011;2501;51.214;6.768;2023-03-13T00:41:57;31.25;;;6.53;;
4971;SDS011;2501;51.214;6.768;2023-03-13T00:44:28;30.23;;;5.85;;
4971;SDS011;2501;51.214;6.768;2023-03-13T00:46:59;29.35;;;5.32;;
4971;SDS011;2501;51.214;6.768;2023-03-13T00:49:29;24.20;;;5.87;;
4971;SDS011;2501;51.214;6.768;2023-03-13T00:51:57;23.58;;;4.93;;
4971;SDS011;2501;51.214;6.768;2023-03-13T00:54:26;20.17;;;5.15;;
4971;SDS011;2501;51.214;6.768;2023-03-13T00:56:54;21.92;;;5.10;;
4971;SDS011;2501;51.214;6.768;2023-03-13T00:59:23;30.17;;;5.10;;
4971;SDS011;2501;51.214;6.768;2023-03-13T01:01:51;27.00;;;5.47;;
4971;SDS011;2501;51.214;6.768;2023-03-13T01:04:22;31.10;;;6.13;;
4971;SDS011;2501;51.214;6.768;2023-03-13T01:06:51;21.83;;;5.20;;
4971;SDS011;2501;51.214;6.768;2023-03-13T01:09:19;20.90;;;5.40;;
4971;SDS011;2501;51.214;6.768;2023-03-13T01:11:47;17.30;;;4.90;;
4971;SDS011;2501;51.214;6.768;2023-03-13T01:14:17;27.15;;;5.07;;
4971;SDS011;2501;51.214;6.768;2023-03-13T01:16:46;27.02;;;5.75;;
4971;SDS011;2501;51.214;6.768;2023-03-13T01:19:15;20.40;;;4.40;;
4971;SDS011;2501;51.214;6.768;2023-03-13T01:21:46;28.58;;;5.00;;
4971;SDS011;2501;51.214;6.768;2023-03-13T01:24:14;22.48;;;5.63;;
4971;SDS011;2501;51.214;6.768;2023-03-13T01:26:44;28.93;;;5.77;;
4971;SDS011;2501;51.214;6.768;2023-03-13T01:29:12;22.27;;;4.78;;
4971;SDS011;2501;51.214;6.768;2023-03-13T01:31:41;27.33;;;6.00;;
4971;SDS011;2501;51.214;6.768;2023-03-13T01:34:09;25.02;;;5.15;;
4971;SDS011;2501;51.214;6.768;2023-03-13T01:36:38;25.20;;;4.93;;
4971;SDS011;2501;51.214;6.768;2023-03-13T01:39:10;26.02;;;6.63;;
4971;SDS011;2501;51.214;6.768;2023-03-13T01:41:38;30.23;;;6.20;;
4971;SDS011;2501;51.214;6.768;2023-03-13T01:44:11;22.17;;;5.80;;
4971;SDS011;2501;51.214;6.768;2023-03-13T01:46:48;31.13;;;6.38;;
4971;SDS011;2501;51.214;6.768;2023-03-13T01:49:17;21.17;;;5.35;;
4971;SDS011;2501;51.214;6.768;2023-03-13T01:51:48;28.15;;;5.47;;
4971;SDS011;2501;51.214;6.768;2023-03-13T01:54:24;28.52;;;5.68;;
4971;SDS011;2501;51.214;6.768;2023-03-13T01:56:56;19.27;;;4.97;;
4971;SDS011;2501;51.214;6.768;2023-03-13T01:59:29;21.60;;;5.38;;
4971;SDS011;2501;51.214;6.768;2023-03-13T02:02:01;20.75;;;5.35;;
4971;SDS011;2501;51.214;6.768;2023-03-13T02:04:33;23.02;;;5.57;;
4971;SDS011;2501;51.214;6.768;2023-03-13T02:07:06;25.63;;;5.35;;
4971;SDS011;2501;51.214;6.768;2023-03-13T02:09:41;19.65;;;4.53;;
4971;SDS011;2501;51.214;6.768;2023-03-13T02:12:18;19.83;;;4.50;;
4971;SDS011;2501;51.214;6.768;2023-03-13T02:14:50;19.48;;;5.18;;
4971;SDS011;2501;51.214;6.768;2023-03-13T02:17:20;27.30;;;5.40;;
4971;SDS011;2501;51.214;6.768;2023-03-13T02:19:50;17.23;;;4.50;;
4971;SDS011;2501;51.214;6.768;2023-03-13T02:22:21;24.55;;;4.85;;
4971;SDS011;2501;51.214;6.768;2023-03-13T02:24:57;20.80;;;4.97;;
4971;SDS011;2501;51.214;6.768;2023-03-13T02:27:39;19.00;;;4.67;;
4971;SDS011;2501;51.214;6.768;2023-03-13T02:30:09;22.40;;;4.60;;
4971;SDS011;2501;51.214;6.768;2023-03-13T02:32:40;17.02;;;3.97;;
4971;SDS011;2501;51.214;6.768;2023-03-13T02:35:11;25.42;;;4.80;;
4971;SDS011;2501;51.214;6.768;2023-03-13T02:37:41;26.73;;;5.15;;
4971;SDS011;2501;51.214;6.768;2023-03-13T02:40:14;14.43;;;3.67;;
4971;SDS011;2501;51.214;6.768;2023-03-13T02:42:47;18.73;;;3.60;;
4971;SDS011;2501;51.214;6.768;2023-03-13T02:45:17;18.55;;;4.03;;
4971;SDS011;2501;51.214;6.768;2023-03-13T02:47:46;17.85;;;4.78;;
4971;SDS011;2501;51.214;6.768;2023-03-13T02:50:14;18.77;;;4.00;;
4971;SDS011;2501;51.214;6.768;2023-03-13T02:52:44;26.00;;;4.20;;
4971;SDS011;2501;51.214;6.768;2023-03-13T02:55:16;18.07;;;3.93;;
4971;SDS011;2501;51.214;6.768;2023-03-13T02:57:53;20.58;;;4.57;;
4971;SDS011;2501;51.214;6.768;2023-03-13T03:00:21;14.45;;;3.95;;
4971;SDS011;2501;51.214;6.768;2023-03-13T03:02:51;13.88;;;3.60;;
4971;SDS011;2501;51.214;6.768;2023-03-13T03:05:20;12.30;;;4.07;;
4971;SDS011;2501;51.214;6.768;2023-03-13T03:07:49;12.98;;;3.25;;
4971;SDS011;2501;51.214;6.768;2023-03-13T03:10:18;12.68;;;3.10;;
4971;SDS011;2501;51.214;6.768;2023-03-13T03:12:46;19.05;;;3.85;;
4971;SDS011;2501;51.214;6.768;2023-03-13T03:15:17;15.57;;;3.55;;
4971;SDS011;2501;51.214;6.768;2023-03-13T03:17:46;8.53;;;2.80;;
4971;SDS011;2501;51.214;6.768;2023-03-13T03:20:15;9.82;;;3.40;;
4971;SDS011;2501;51.214;6.768;2023-03-13T03:22:43;12.98;;;2.90;;
4971;SDS011;2501;51.214;6.768;2023-03-13T03:25:11;11.05;;;2.80;;
4971;SDS011;2501;51.214;6.768;2023-03-13T03:27:40;10.00;;;2.90;;
4971;SDS011;2501;51.214;6.768;2023-03-13T03:30:09;7.05;;;2.70;;
4971;SDS011;2501;51.214;6.768;2023-03-13T03:32:41;9.40;;;2.10;;
4971;SDS011;2501;51.214;6.768;2023-03-13T03:35:09;6.55;;;2.20;;
4971;SDS011;2501;51.214;6.768;2023-03-13T03:37:38;6.05;;;3.00;;
4971;SDS011;2501;51.214;6.768;2023-03-13T03:40:07;7.63;;;2.35;;
4971;SDS011;2501;51.214;6.768;2023-03-13T03:42:36;6.07;;;2.45;;
4971;SDS011;2501;51.214;6.768;2023-03-13T03:45:05;8.80;;;2.22;;
4971;SDS011;2501;51.214;6.768;2023-03-13T03:47:34;5.68;;;2.00;;
4971;SDS011;2501;51.214;6.768;2023-03-13T03:50:05;5.37;;;2.50;;
4971;SDS011;2501;51.214;6.768;2023-03-13T03:52:35;7.33;;;2.40;;
4971;SDS011;2501;51.214;6.768;2023-03-13T03:55:04;5.90;;;2.20;;
4971;SDS011;2501;51.214;6.768;2023-03-13T03:57:33;5.10;;;2.20;;
4971;SDS011;2501;51.214;6.768;2023-03-13T04:00:01;3.92;;;1.60;;
4971;SDS011;2501;51.214;6.768;2023-03-13T04:02:32;6.05;;;1.75;;
4971;SDS011;2501;51.214;6.768;2023-03-13T04:05:00;2.75;;;1.40;;
4971;SDS011;2501;51.214;6.768;2023-03-13T04:07:31;2.60;;;1.35;;
4971;SDS011;2501;51.214;6.768;2023-03-13T04:10:00;3.65;;;1.63;;
4971;SDS011;2501;51.214;6.768;2023-03-13T04:12:28;4.53;;;2.25;;
4971;SDS011;2501;51.214;6.768;2023-03-13T04:14:57;2.40;;;1.30;;
4971;SDS011;2501;51.214;6.768;2023-03-13T04:17:25;1.83;;;1.50;;
4971;SDS011;2501;51.214;6.768;2023-03-13T04:19:53;1.40;;;1.25;;
4971;SDS011;2501;51.214;6.768;2023-03-13T04:22:22;1.90;;;1.20;;
4971;SDS011;2501;51.214;6.768;2023-03-13T04:24:53;3.38;;;1.40;;
4971;SDS011;2501;51.214;6.768;2023-03-13T04:27:21;4.75;;;2.70;;
4971;SDS011;2501;51.214;6.768;2023-03-13T04:29:50;1.95;;;1.75;;
4971;SDS011;2501;51.214;6.768;2023-03-13T04:32:18;3.13;;;1.40;;
4971;SDS011;2501;51.214;6.768;2023-03-13T04:34:46;1.85;;;1.50;;
4971;SDS011;2501;51.214;6.768;2023-03-13T04:37:15;3.30;;;1.55;;
4971;SDS011;2501;51.214;6.768;2023-03-13T04:39:43;2.10;;;1.50;;
4971;SDS011;2501;51.214;6.768;2023-03-13T04:42:14;4.40;;;1.30;;
4971;SDS011;2501;51.214;6.768;2023-03-13T04:44:43;3.20;;;1.20;;
4971;SDS011;2501;51.214;6.768;2023-03-13T04:47:11;1.40;;;1.20;;
4971;SDS011;2501;51.214;6.768;2023-03-13T04:49:39;1.20;;;1.00;;
4971;SDS011;2501;51.214;6.768;2023-03-13T04:52:08;1.90;;;1.40;;
4971;SDS011;2501;51.214;6.768;2023-03-13T04:54:37;2.83;;;1.30;;
4971;SDS011;2501;51.214;6.768;2023-03-13T04:57:05;1.60;;;0.90;;
4971;SDS011;2501;51.214;6.768;2023-03-13T04:59:36;1.42;;;0.95;;
4971;SDS011;2501;51.214;6.768;2023-03-13T05:02:04;1.80;;;1.30;;
4971;SDS011;2501;51.214;6.768;2023-03-13T05:04:33;1.50;;;1.20;;
4971;SDS011;2501;51.214;6.768;2023-03-13T05:07:01;1.30;;;1.20;;
4971;SDS011;2501;51.214;6.768;2023-03-13T05:09:30;2.30;;;1.60;;
4971;SDS011;2501;51.214;6.768;2023-03-13T05:11:58;2.00;;;1.30;;
4971;SDS011;2501;51.214;6.768;2023-03-13T05:14:26;1.50;;;1.40;;
4971;SDS011;2501;51.214;6.768;2023-03-13T05:16:57;1.50;;;1.40;;
4971;SDS011;2501;51.214;6.768;2023-03-13T05:19:26;2.10;;;1.90;;
4971;SDS011;2501;51.214;6.768;2023-03-13T05:21:54;2.10;;;1.40;;
4971;SDS011;2501;51.214;6.768;2023-03-13T05:24:23;23.33;;;5.18;;
4971;SDS011;2501;51.214;6.768;2023-03-13T05:26:51;14.48;;;3.55;;
4971;SDS011;2501;51.214;6.768;2023-03-13T05:29:20;3.22;;;1.60;;
4971;SDS011;2501;51.214;6.768;2023-03-13T05:31:48;1.75;;;1.60;;
4971;SDS011;2501;51.214;6.768;2023-03-13T05:34:19;2.03;;;1.80;;
4971;SDS011;2501;51.214;6.768;2023-03-13T05:36:47;2.70;;;1.50;;
4971;SDS011;2501;51.214;6.768;2023-03-13T05:39:16;4.10;;;1.65;;
4971;SDS011;2501;51.214;6.768;2023-03-13T05:41:44;2.92;;;1.80;;
4971;SDS011;2501;51.214;6.768;2023-03-13T05:44:13;4.40;;;1.60;;
4971;SDS011;2501;51.214;6.768;2023-03-13T05:46:41;2.20;;;2.00;;
4971;SDS011;2501;51.214;6.768;2023-03-13T05:49:10;2.33;;;1.80;;
4971;SDS011;2501;51.214;6.768;2023-03-13T05:51:41;3.00;;;1.60;;
4971;SDS011;2501;51.214;6.768;2023-03-13T05:54:09;1.40;;;1.30;;
4971;SDS011;2501;51.214;6.768;2023-03-13T05:56:37;2.70;;;1.80;;
4971;SDS011;2501;51.214;6.768;2023-03-13T05:59:06;2.97;;;1.70;;
4971;SDS011;2501;51.214;6.768;2023-03-13T06:01:34;3.00;;;1.90;;
4971;SDS011;2501;51.214;6.768;2023-03-13T06:04:03;3.13;;;1.50;;
4971;SDS011;2501;51.214;6.768;2023-03-13T06:06:32;2.90;;;1.40;;
4971;SDS011;2501;51.214;6.768;2023-03-13T06:09:03;2.85;;;1.90;;
4971;SDS011;2501;51.214;6.768;2023-03-13T06:11:31;1.90;;;1.67;;
4971;SDS011;2501;51.214;6.768;2023-03-13T06:14:00;2.10;;;1.90;;
4971;SDS011;2501;51.214;6.768;2023-03-13T06:16:28;1.70;;;1.60;;
4971;SDS011;2501;51.214;6.768;2023-03-13T06:18:56;2.60;;;2.40;;
4971;SDS011;2501;51.214;6.768;2023-03-13T06:21:26;3.00;;;1.70;;
4971;SDS011;2501;51.214;6.768;2023-03-13T06:23:55;2.85;;;2.30;;
4971;SDS011;2501;51.214;6.768;2023-03-13T06:26:26;3.10;;;2.80;;
4971;SDS011;2501;51.214;6.768;2023-03-13T06:28:55;2.65;;;2.35;;
4971;SDS011;2501;51.214;6.768;2023-03-13T06:31:23;2.30;;;2.20;;
4971;SDS011;2501;51.214;6.768;2023-03-13T06:33:52;7.82;;;2.67;;
4971;SDS011;2501;51.214;6.768;2023-03-13T06:36:21;4.10;;;2.43;;
4971;SDS011;2501;51.214;6.768;2023-03-13T06:38:50;2.80;;;2.20;;
4971;SDS011;2501;51.214;6.768;2023-03-13T06:41:19;5.20;;;2.17;;
4971;SDS011;2501;51.214;6.768;2023-03-13T06:43:51;2.80;;;2.60;;
4971;SDS011;2501;51.214;6.768;2023-03-13T06:46:20;2.83;;;2.20;;
4971;SDS011;2501;51.214;6.768;2023-03-13T06:48:50;2.80;;;2.60;;
4971;SDS011;2501;51.214;6.768;2023-03-13T06:51:19;2.65;;;2.38;;
4971;SDS011;2501;51.214;6.768;2023-03-13T06:53:50;5.55;;;2.70;;
4971;SDS011;2501;51.214;6.768;2023-03-13T06:56:19;3.25;;;2.58;;
4971;SDS011;2501;51.214;6.768;2023-03-13T06:58:48;2.70;;;2.30;;
4971;SDS011;2501;51.214;6.768;2023-03-13T07:01:19;7.90;;;2.80;;
4971;SDS011;2501;51.214;6.768;2023-03-13T07:03:48;5.60;;;2.97;;
4971;SDS011;2501;51.214;6.768;2023-03-13T07:06:16;3.35;;;2.30;;
4971;SDS011;2501;51.214;6.768;2023-03-13T07:08:45;3.17;;;2.88;;
4971;SDS011;2501;51.214;6.768;2023-03-13T07:11:14;4.57;;;2.67;;
4971;SDS011;2501;51.214;6.768;2023-03-13T07:13:43;2.83;;;2.55;;
4971;SDS011;2501;51.214;6.768;2023-03-13T07:16:14;5.50;;;2.60;;
4971;SDS011;2501;51.214;6.768;2023-03-13T07:18:42;2.63;;;2.42;;
4971;SDS011;2501;51.214;6.768;2023-03-13T07:21:11;5.97;;;2.53;;
4971;SDS011;2501;51.214;6.768;2023-03-13T07:23:40;4.50;;;2.17;;
4971;SDS011;2501;51.214;6.768;2023-03-13T07:26:10;5.82;;;2.17;;
4971;SDS011;2501;51.214;6.768;2023-03-13T07:28:40;3.65;;;2.33;;
4971;SDS011;2501;51.214;6.768;2023-03-13T07:31:09;2.50;;;2.30;;
4971;SDS011;2501;51.214;6.768;2023-03-13T07:33:42;6.97;;;2.70;;
4971;SDS011;2501;51.214;6.768;2023-03-13T07:36:12;5.38;;;2.60;;
4971;SDS011;2501;51.214;6.768;2023-03-13T07:38:41;6.13;;;2.70;;
4971;SDS011;2501;51.214;6.768;2023-03-13T07:41:10;10.10;;;2.65;;
4971;SDS011;2501;51.214;6.768;2023-03-13T07:43:40;4.75;;;2.70;;
4971;SDS011;2501;51.214;6.768;2023-03-13T07:46:09;11.15;;;3.17;;
4971;SDS011;2501;51.214;6.768;2023-03-13T07:48:42;6.40;;;2.53;;
4971;SDS011;2501;51.214;6.768;2023-03-13T07:51:12;7.13;;;2.60;;
4971;SDS011;2501;51.214;6.768;2023-03-13T07:53:41;6.80;;;2.97;;
4971;SDS011;2501;51.214;6.768;2023-03-13T07:56:12;4.82;;;2.47;;
4971;SDS011;2501;51.214;6.768;2023-03-13T07:58:42;6.10;;;2.15;;
4971;SDS011;2501;51.214;6.768;2023-03-13T08:01:12;4.60;;;2.50;;
4971;SDS011;2501;51.214;6.768;2023-03-13T08:03:46;7.70;;;2.30;;
4971;SDS011;2501;51.214;6.768;2023-03-13T08:06:16;8.18;;;2.70;;
4971;SDS011;2501;51.214;6.768;2023-03-13T08:08:47;6.97;;;2.50;;
4971;SDS011;2501;51.214;6.768;2023-03-13T08:11:17;9.95;;;3.00;;
4971;SDS011;2501;51.214;6.768;2023-03-13T08:13:48;6.90;;;2.60;;
4971;SDS011;2501;51.214;6.768;2023-03-13T08:16:18;4.65;;;2.50;;
4971;SDS011;2501;51.214;6.768;2023-03-13T08:18:51;7.90;;;2.75;;
4971;SDS011;2501;51.214;6.768;2023-03-13T08:21:21;9.93;;;2.80;;
4971;SDS011;2501;51.214;6.768;2023-03-13T08:23:51;9.45;;;2.65;;
4971;SDS011;2501;51.214;6.768;2023-03-13T08:26:22;4.15;;;2.75;;
4971;SDS011;2501;51.214;6.768;2023-03-13T08:28:52;6.53;;;2.88;;
4971;SDS011;2501;51.214;6.768;2023-03-13T08:31:23;2.65;;;2.20;;
4971;SDS011;2501;51.214;6.768;2023-03-13T08:33:56;4.15;;;3.15;;
4971;SDS011;2501;51.214;6.768;2023-03-13T08:36:25;8.87;;;3.50;;
4971;SDS011;2501;51.214;6.768;2023-03-13T08:38:57;9.20;;;3.60;;
4971;SDS011;2501;51.214;6.768;2023-03-13T08:41:27;13.23;;;3.10;;
4971;SDS011;2501;51.214;6.768;2023-03-13T08:43:57;6.20;;;2.80;;
4971;SDS011;2501;51.214;6.768;2023-03-13T08:46:27;4.95;;;2.50;;
4971;SDS011;2501;51.214;6.768;2023-03-13T08:49:00;10.38;;;2.72;;
4971;SDS011;2501;51.214;6.768;2023-03-13T08:51:29;7.03;;;2.47;;
4971;SDS011;2501;51.214;6.768;2023-03-13T08:53:57;6.00;;;3.07;;
4971;SDS011;2501;51.214;6.768;2023-03-13T08:56:26;9.40;;;3.10;;
4971;SDS011;2501;51.214;6.768;2023-03-13T08:58:57;8.77;;;3.33;;
4971;SDS011;2501;51.214;6.768;2023-03-13T09:01:27;6.50;;;2.90;;
4971;SDS011;2501;51.214;6.768;2023-03-13T09:04:00;15.02;;;3.00;;
4971;SDS011;2501;51.214;6.768;2023-03-13T09:06:28;10.85;;;2.80;;
4971;SDS011;2501;51.214;6.768;2023-03-13T09:08:57;7.35;;;2.70;;
4971;SDS011;2501;51.214;6.768;2023-03-13T09:11:26;8.10;;;2.80;;
4971;SDS011;2501;51.214;6.768;2023-03-13T09:13:55;8.20;;;2.90;;
4971;SDS011;2501;51.214;6.768;2023-03-13T09:16:26;9.10;;;3.70;;
4971;SDS011;2501;51.214;6.768;2023-03-13T09:18:56;7.85;;;2.60;;
4971;SDS011;2501;51.214;6.768;2023-03-13T09:21:29;11.43;;;3.70;;
4971;SDS011;2501;51.214;6.768;2023-03-13T09:23:58;10.40;;;2.88;;
4971;SDS011;2501;51.214;6.768;2023-03-13T09:26:28;8.40;;;2.80;;
4971;SDS011;2501;51.214;6.768;2023-03-13T09:28:57;9.45;;;3.17;;
4971;SDS011;2501;51.214;6.768;2023-03-13T09:31:32;7.28;;;3.10;;
4971;SDS011;2501;51.214;6.768;2023-03-13T09:34:02;8.35;;;3.33;;
4971;SDS011;2501;51.214;6.768;2023-03-13T09:36:34;8.27;;;3.10;;
4971;SDS011;2501;51.214;6.768;2023-03-13T09:39:03;8.07;;;3.00;;
4971;SDS011;2501;51.214;6.768;2023-03-13T09:41:33;7.97;;;3.30;;
4971;SDS011;2501;51.214;6.768;2023-03-13T09:44:08;9.27;;;3.30;;
4971;SDS011;2501;51.214;6.768;2023-03-13T09:46:43;6.28;;;3.00;;
4971;SDS011;2501;51.214;6.768;2023-03-13T09:49:19;9.15;;;3.28;;
4971;SDS011;2501;51.214;6.768;2023-03-13T09:52:01;8.85;;;3.60;;
4971;SDS011;2501;51.214;6.768;2023-03-13T09:54:37;10.40;;;3.50;;
4971;SDS011;2501;51.214;6.768;2023-03-13T09:57:11;8.80;;;3.67;;
4971;SDS011;2501;51.214;6.768;2023-03-13T09:59:47;6.27;;;3.40;;
4971;SDS011;2501;51.214;6.768;2023-03-13T10:02:22;7.63;;;3.38;;
4971;SDS011;2501;51.214;6.768;2023-03-13T10:04:58;8.60;;;3.00;;
4971;SDS011;2501;51.214;6.768;2023-03-13T10:07:35;7.30;;;2.60;;
4971;SDS011;2501;51.214;6.768;2023-03-13T10:10:08;8.98;;;2.83;;
4971;SDS011;2501;51.214;6.768;2023-03-13T10:12:43;3.80;;;2.20;;
4971;SDS011;2501;51.214;6.768;2023-03-13T10:15:20;4.93;;;2.60;;
4971;SDS011;2501;51.214;6.768;2023-03-13T10:17:58;8.30;;;2.53;;
4971;SDS011;2501;51.214;6.768;2023-03-13T10:20:28;6.53;;;2.70;;
4971;SDS011;2501;51.214;6.768;2023-03-13T10:23:04;10.45;;;2.80;;
4971;SDS011;2501;51.214;6.768;2023-03-13T10:25:39;7.68;;;2.70;;
4971;SDS011;2501;51.214;6.768;2023-03-13T10:28:09;3.33;;;2.00;;
4971;SDS011;2501;51.214;6.768;2023-03-13T10:30:40;4.50;;;2.65;;
4971;SDS011;2501;51.214;6.768;2023-03-13T10:33:23;4.33;;;2.20;;
4971;SDS011;2501;51.214;6.768;2023-03-13T10:36:05;4.23;;;2.13;;
4971;SDS011;2501;51.214;6.768;2023-03-13T10:38:47;5.60;;;2.45;;
4971;SDS011;2501;51.214;6.768;2023-03-13T10:41:22;1.90;;;1.80;;
4971;SDS011;2501;51.214;6.768;2023-03-13T10:43:57;4.87;;;2.00;;
4971;SDS011;2501;51.214;6.768;2023-03-13T10:46:28;3.50;;;1.70;;
4971;SDS011;2501;51.214;6.768;2023-03-13T10:48:59;3.63;;;2.40;;
4971;SDS011;2501;51.214;6.768;2023-03-13T10:51:31;2.90;;;1.50;;
4971;SDS011;2501;51.214;6.768;2023-03-13T10:54:18;3.20;;;1.35;;
4971;SDS011;2501;51.214;6.768;2023-03-13T10:56:50;2.87;;;1.80;;
4971;SDS011;2501;51.214;6.768;2023-03-13T10:59:21;5.00;;;1.92;;
4971;SDS011;2501;51.214;6.768;2023-03-13T11:01:52;4.33;;;1.50;;
4971;SDS011;2501;51.214;6.768;2023-03-13T11:04:29;4.25;;;1.67;;
4971;SDS011;2501;51.214;6.768;2023-03-13T11:07:00;2.25;;;1.67;;
4971;SDS011;2501;51.214;6.768;2023-03-13T11:09:34;7.07;;;2.20;;
4971;SDS011;2501;51.214;6.768;2023-03-13T11:12:03;1.60;;;1.50;;
4971;SDS011;2501;51.214;6.768;2023-03-13T11:14:36;4.20;;;1.58;;
4971;SDS011;2501;51.214;6.768;2023-03-13T11:17:09;2.60;;;1.90;;
4971;SDS011;2501;51.214;6.768;2023-03-13T11:19:57;2.07;;;1.10;;
4971;SDS011;2501;51.214;6.768;2023-03-13T11:22:47;5.25;;;1.50;;
4971;SDS011;2501;51.214;6.768;2023-03-13T11:25:24;1.85;;;1.13;;
4971;SDS011;2501;51.214;6.768;2023-03-13T11:28:08;2.92;;;1.48;;
4971;SDS011;2501;51.214;6.768;2023-03-13T11:30:48;6.70;;;1.70;;
4971;SDS011;2501;51.214;6.768;2023-03-13T11:33:30;7.40;;;1.73;;
4971;SDS011;2501;51.214;6.768;2023-03-13T11:36:08;7.18;;;1.40;;
4971;SDS011;2501;51.214;6.768;2023-03-13T11:38:42;9.40;;;1.40;;
4971;SDS011;2501;51.214;6.768;2023-03-13T11:41:21;3.17;;;1.10;;
4971;SDS011;2501;51.214;6.768;2023-03-13T11:46:53;3.78;;;1.20;;
4971;SDS011;2501;51.214;6.768;2023-03-13T11:52:29;5.05;;;1.50;;
4971;SDS011;2501;51.214;6.768;2023-03-13T11:55:11;2.85;;;1.30;;
4971;SDS011;2501;51.214;6.768;2023-03-13T11:57:52;6.05;;;1.70;;
4971;SDS011;2501;51.214;6.768;2023-03-13T12:00:30;1.30;;;1.20;;
4971;SDS011;2501;51.214;6.768;2023-03-13T12:03:03;4.60;;;1.70;;
4971;SDS011;2501;51.214;6.768;2023-03-13T12:05:40;3.47;;;1.30;;
4971;SDS011;2501;51.214;6.768;2023-03-13T12:08:15;3.80;;;1.17;;
4971;SDS011;2501;51.214;6.768;2023-03-13T12:10:47;2.72;;;1.20;;
4971;SDS011;2501;51.214;6.768;2023-03-13T12:13:28;6.38;;;1.30;;
4971;SDS011;2501;51.214;6.768;2023-03-13T12:16:00;8.90;;;1.13;;
4971;SDS011;2501;51.214;6.768;2023-03-13T12:18:35;6.30;;;1.40;;
4971;SDS011;2501;51.214;6.768;2023-03-13T12:21:06;11.18;;;1.30;;
4971;SDS011;2501;51.214;6.768;2023-03-13T12:23:45;5.15;;;1.80;;
4971;SDS011;2501;51.214;6.768;2023-03-13T12:26:24;5.20;;;1.10;;
4971;SDS011;2501;51.214;6.768;2023-03-13T12:29:05;6.43;;;1.30;;
4971;SDS011;2501;51.214;6.768;2023-03-13T12:31:42;2.63;;;1.05;;
4971;SDS011;2501;51.214;6.768;2023-03-13T12:34:19;4.63;;;1.30;;
4971;SDS011;2501;51.214;6.768;2023-03-13T12:36:55;4.40;;;1.63;;
4971;SDS011;2501;51.214;6.768;2023-03-13T12:39:32;3.28;;;1.48;;
4971;SDS011;2501;51.214;6.768;2023-03-13T12:42:16;4.60;;;1.70;;
4971;SDS011;2501;51.214;6.768;2023-03-13T12:44:58;7.22;;;1.10;;
4971;SDS011;2501;51.214;6.768;2023-03-13T12:47:28;11.48;;;1.65;;
4971;SDS011;2501;51.214;6.768;2023-03-13T12:50:02;2.45;;;1.98;;
4971;SDS011;2501;51.214;6.768;2023-03-13T12:55:56;5.30;;;1.13;;
4971;SDS011;2501;51.214;6.768;2023-03-13T12:58:39;3.95;;;1.45;;
4971;SDS011;2501;51.214;6.768;2023-03-13T13:01:16;4.13;;;1.52;;
4971;SDS011;2501;51.214;6.768;2023-03-13T13:03:54;5.30;;;1.30;;
4971;SDS011;2501;51.214;6.768;2023-03-13T13:06:24;8.27;;;1.92;;
4971;SDS011;2501;51.214;6.768;2023-03-13T13:09:06;9.82;;;1.60;;
4971;SDS011;2501;51.214;6.768;2023-03-13T13:11:43;13.82;;;1.58;;
4971;SDS011;2501;51.214;6.768;2023-03-13T13:32:32;4.60;;;1.70;;
4971;SDS011;2501;51.214;6.768;2023-03-13T13:35:03;11.90;;;1.45;;
4971;SDS011;2501;51.214;6.768;2023-03-13T13:37:48;2.63;;;1.60;;
4971;SDS011;2501;51.214;6.768;2023-03-13T13:40:18;7.13;;;1.48;;
4971;SDS011;2501;51.214;6.768;2023-03-13T13:42:54;7.75;;;1.55;;
4971;SDS011;2501;51.214;6.768;2023-03-13T13:45:24;9.13;;;1.40;;
4971;SDS011;2501;51.214;6.768;2023-03-13T13:53:52;3.22;;;1.70;;
4971;SDS011;2501;51.214;6.768;2023-03-13T13:56:28;8.40;;;1.90;;
4971;SDS011;2501;51.214;6.768;2023-03-13T14:02:12;3.60;;;1.60;;
4971;SDS011;2501;51.214;6.768;2023-03-13T14:04:48;3.87;;;1.70;;
4971;SDS011;2501;51.214;6.768;2023-03-13T14:07:20;5.80;;;1.80;;
4971;SDS011;2501;51.214;6.768;2023-03-13T14:10:05;3.88;;;1.40;;
4971;SDS011;2501;51.214;6.768;2023-03-13T14:12:44;5.80;;;1.50;;
4971;SDS011;2501;51.214;6.768;2023-03-13T14:15:15;4.82;;;1.40;;
4971;SDS011;2501;51.214;6.768;2023-03-13T14:17:46;3.30;;;1.67;;
4971;SDS011;2501;51.214;6.768;2023-03-13T14:20:18;4.00;;;1.38;;
4971;SDS011;2501;51.214;6.768;2023-03-13T14:23:00;2.60;;;1.20;;
4971;SDS011;2501;51.214;6.768;2023-03-13T14:28:20;3.67;;;1.40;;
4971;SDS011;2501;51.214;6.768;2023-03-13T14:30:51;2.80;;;1.00;;
4971;SDS011;2501;51.214;6.768;2023-03-13T14:33:21;5.10;;;1.83;;
4971;SDS011;2501;51.214;6.768;2023-03-13T14:35:52;4.80;;;1.40;;
4971;SDS011;2501;51.214;6.768;2023-03-13T14:38:22;3.60;;;1.80;;
4971;SDS011;2501;51.214;6.768;2023-03-13T14:40:54;4.53;;;1.50;;
4971;SDS011;2501;51.214;6.768;2023-03-13T14:43:25;8.57;;;1.33;;
4971;SDS011;2501;51.214;6.768;2023-03-13T14:45:58;3.78;;;1.50;;
4971;SDS011;2501;51.214;6.768;2023-03-13T14:48:28;9.23;;;1.38;;
4971;SDS011;2501;51.214;6.768;2023-03-13T14:51:02;7.20;;;1.50;;
4971;SDS011;2501;51.214;6.768;2023-03-13T14:53:36;7.33;;;1.33;;
4971;SDS011;2501;51.214;6.768;2023-03-13T14:56:11;9.20;;;1.30;;
4971;SDS011;2501;51.214;6.768;2023-03-13T14:58:43;5.57;;;1.70;;
4971;SDS011;2501;51.214;6.768;2023-03-13T15:01:13;13.30;;;1.80;;
4971;SDS011;2501;51.214;6.768;2023-03-13T15:03:50;5.05;;;1.25;;
4971;SDS011;2501;51.214;6.768;2023-03-13T15:06:20;10.90;;;1.60;;
4971;SDS011;2501;51.214;6.768;2023-03-13T15:11:54;4.47;;;1.50;;
4971;SDS011;2501;51.214;6.768;2023-03-13T15:14:32;7.03;;;1.30;;
4971;SDS011;2501;51.214;6.768;2023-03-13T15:17:04;4.40;;;1.20;;
4971;SDS011;2501;51.214;6.768;2023-03-13T15:19:39;3.00;;;1.40;;
4971;SDS011;2501;51.214;6.768;2023-03-13T15:22:10;2.28;;;1.33;;
4971;SDS011;2501;51.214;6.768;2023-03-13T15:24:41;2.00;;;0.90;;
4971;SDS011;2501;51.214;6.768;2023-03-13T15:27:19;5.57;;;1.35;;
4971;SDS011;2501;51.214;6.768;2023-03-13T15:29:50;1.13;;;1.00;;
4971;SDS011;2501;51.214;6.768;2023-03-13T15:32:23;3.00;;;1.10;;
4971;SDS011;2501;51.214;6.768;2023-03-13T15:34:56;5.20;;;1.15;;
4971;SDS011;2501;51.214;6.768;2023-03-13T15:37:25;4.60;;;1.55;;
4971;SDS011;2501;51.214;6.768;2023-03-13T15:39:54;2.60;;;1.37;;
4971;SDS011;2501;51.214;6.768;2023-03-13T15:42:26;3.17;;;1.27;;
4971;SDS011;2501;51.214;6.768;2023-03-13T15:44:55;7.45;;;1.63;;
4971;SDS011;2501;51.214;6.768;2023-03-13T15:47:24;6.20;;;1.20;;
4971;SDS011;2501;51.214;6.768;2023-03-13T15:49:53;1.63;;;1.30;;
4971;SDS011;2501;51.214;6.768;2023-03-13T15:52:21;2.00;;;1.30;;
4971;SDS011;2501;51.214;6.768;2023-03-13T15:54:50;8.07;;;1.30;;
4971;SDS011;2501;51.214;6.768;2023-03-13T15:57:20;4.50;;;1.50;;
4971;SDS011;2501;51.214;6.768;2023-03-13T15:59:53;1.08;;;1.00;;
4971;SDS011;2501;51.214;6.768;2023-03-13T16:02:22;3.92;;;1.50;;
4971;SDS011;2501;51.214;6.768;2023-03-13T16:04:51;1.30;;;1.10;;
4971;SDS011;2501;51.214;6.768;2023-03-13T16:07:20;1.92;;;1.20;;
4971;SDS011;2501;51.214;6.768;2023-03-13T16:09:49;2.10;;;1.30;;
4971;SDS011;2501;51.214;6.768;2023-03-13T16:12:17;4.88;;;1.90;;
4971;SDS011;2501;51.214;6.768;2023-03-13T16:14:46;2.65;;;1.20;;
4971;SDS011;2501;51.214;6.768;2023-03-13T16:17:18;2.47;;;1.80;;
4971;SDS011;2501;51.214;6.768;2023-03-13T16:19:49;1.70;;;1.60;;
4971;SDS011;2501;51.214;6.768;2023-03-13T16:22:19;2.45;;;1.58;;